Time;durP1;ratioP1;P1;durP2;ratioP2;P2;SDS_P1;SDS_P2;PMS_P1;PMS_P2;Temp;Humidity;BMP_temperature;BMP_pressure;BME280_temperature;BME280_humidity;BME280_pressure;Samples;Min_cycle;Max_cycle;Signal;HPM_P1;HPM_P2
2022/05/08 00:02:09;;;;;;;20.20;13.35;;;;;;;16.23;69.91;101854.44;5015551;28;20069;-66
2022/05/08 00:04:37;;;;;;;22.88;12.90;;;;;;;16.28;69.46;101854.28;5002841;28;20049;-68
2022/05/08 00:07:05;;;;;;;17.55;12.25;;;;;;;16.02;70.41;101858.97;4985815;28;20054;-67
2022/05/08 00:09:33;;;;;;;17.45;12.25;;;;;;;16.13;70.17;101855.56;5014901;28;20052;-67
2022/05/08 00:12:01;;;;;;;17.75;12.68;;;;;;;15.80;71.06;101857.06;5001966;28;20053;-68
2022/05/08 00:14:28;;;;;;;19.33;11.85;;;;;;;15.88;70.70;101866.59;5015193;28;20544;-69
2022/05/08 00:16:55;;;;;;;20.25;12.30;;;;;;;15.81;70.89;101857.91;4995996;28;20058;-67
2022/05/08 00:19:23;;;;;;;17.08;12.43;;;;;;;15.79;71.04;101852.69;4984366;28;20057;-67
2022/05/08 00:21:50;;;;;;;18.30;12.60;;;;;;;15.82;71.11;101853.97;4997655;28;20050;-67
2022/05/08 00:24:18;;;;;;;17.38;12.10;;;;;;;16.00;70.46;101850.97;5003161;28;20379;-61
2022/05/08 00:26:45;;;;;;;16.83;11.95;;;;;;;16.12;69.94;101855.88;4992752;28;20062;-61
2022/05/08 00:29:14;;;;;;;19.98;12.70;;;;;;;15.97;70.54;101853.56;5016806;28;20424;-61
2022/05/08 00:31:44;;;;;;;18.92;13.05;;;;;;;16.06;70.26;101854.38;4984660;28;20133;-60
2022/05/08 00:34:11;;;;;;;21.98;12.95;;;;;;;15.58;72.05;101855.19;5014782;28;20057;-61
2022/05/08 00:36:39;;;;;;;20.00;13.60;;;;;;;15.47;72.62;101853.00;5014637;28;20374;-61
2022/05/08 00:39:06;;;;;;;17.58;12.90;;;;;;;15.37;73.27;101856.84;5014613;28;20061;-60
2022/05/08 00:41:34;;;;;;;19.65;13.15;;;;;;;15.44;72.90;101868.34;5015114;28;20077;-60
2022/05/08 00:44:02;;;;;;;19.30;13.23;;;;;;;15.44;73.15;101853.66;5001657;28;20046;-61
2022/05/08 00:46:30;;;;;;;17.45;12.77;;;;;;;15.56;72.43;101851.91;4989036;28;20065;-61
2022/05/08 00:48:57;;;;;;;19.80;12.43;;;;;;;15.39;73.42;101856.53;4979244;28;20077;-61
2022/05/08 00:51:26;;;;;;;21.65;12.52;;;;;;;15.18;74.39;101858.19;5019372;28;20048;-61
2022/05/08 00:53:56;;;;;;;22.75;13.32;;;;;;;15.03;74.76;101855.81;5015226;28;20054;-60
2022/05/08 00:56:26;;;;;;;18.88;12.45;;;;;;;15.03;75.03;101858.59;4992981;28;20046;-61
2022/05/08 00:58:54;;;;;;;17.23;13.02;;;;;;;15.15;74.48;101859.63;5008159;28;20045;-61
2022/05/08 01:01:23;;;;;;;18.75;12.32;;;;;;;15.20;74.71;101858.69;4952844;28;20050;-60
2022/05/08 01:03:51;;;;;;;18.80;12.50;;;;;;;15.44;73.43;101856.41;5021092;28;20060;-67
2022/05/08 01:06:19;;;;;;;19.15;12.93;;;;;;;15.43;73.42;101857.56;5024891;28;20057;-67
2022/05/08 01:08:48;;;;;;;17.15;12.80;;;;;;;15.42;72.85;101858.69;5000911;28;20058;-66
2022/05/08 01:11:17;;;;;;;18.80;12.82;;;;;;;15.29;73.55;101856.81;4981088;28;20058;-66
2022/05/08 01:13:45;;;;;;;17.20;12.52;;;;;;;15.18;73.43;101860.97;4978902;28;20046;-68
2022/05/08 01:16:17;;;;;;;23.15;13.00;;;;;;;15.01;74.30;101856.09;5025949;28;20049;-68
2022/05/08 01:18:46;;;;;;;20.92;13.23;;;;;;;15.03;74.58;101855.81;4987797;28;20066;-67
2022/05/08 01:21:16;;;;;;;;;;;;;;;15.13;74.06;101855.53;5018229;28;20141;-66
2022/05/08 01:23:44;;;;;;;18.40;13.60;;;;;;;14.99;74.90;101852.84;5005679;28;19926;-67
2022/05/08 01:26:12;;;;;;;18.85;13.25;;;;;;;15.04;74.60;101855.50;5018509;28;20046;-66
2022/05/08 01:28:39;;;;;;;23.08;14.38;;;;;;;14.80;75.57;101857.75;5009163;28;20072;-67
2022/05/08 01:31:06;;;;;;;23.00;14.45;;;;;;;14.57;76.62;101854.09;5008994;28;20062;-67
2022/05/08 01:33:34;;;;;;;20.20;13.98;;;;;;;14.79;76.12;101850.56;4983470;28;20050;-66
2022/05/08 01:36:01;;;;;;;20.08;12.98;;;;;;;15.12;75.15;101848.34;4993057;28;20046;-67
2022/05/08 01:38:29;;;;;;;20.77;14.63;;;;;;;15.17;73.84;101849.03;4993913;28;20049;-66
2022/05/08 01:41:03;;;;;;;18.05;13.75;;;;;;;15.10;74.20;101848.66;4999310;28;20425;-67
2022/05/08 01:43:32;;;;;;;23.23;14.88;;;;;;;14.97;74.74;101852.34;5018337;28;20054;-67
2022/05/08 01:45:59;;;;;;;20.25;14.20;;;;;;;14.92;75.00;101857.19;5007656;28;20050;-67
2022/05/08 01:48:27;;;;;;;19.17;14.57;;;;;;;15.09;74.81;101846.19;4995211;28;20053;-67
2022/05/08 01:50:59;;;;;;;19.38;15.48;;;;;;;14.52;76.47;101858.97;4998602;28;20416;-67
2022/05/08 01:53:31;;;;;;;21.13;14.85;;;;;;;14.63;76.62;101863.13;5017968;28;20049;-67
2022/05/08 01:55:59;;;;;;;20.10;14.77;;;;;;;14.37;77.72;101862.06;4989449;28;20057;-62
2022/05/08 01:58:28;;;;;;;21.30;15.70;;;;;;;14.59;77.34;101859.38;5018126;28;20374;-61
2022/05/08 02:00:56;;;;;;;25.45;16.10;;;;;;;14.56;77.03;101860.78;4970921;28;20081;-61
2022/05/08 02:03:24;;;;;;;22.48;16.23;;;;;;;14.41;77.47;101858.38;5023703;28;20053;-61
2022/05/08 02:05:52;;;;;;;21.52;16.90;;;;;;;14.35;77.77;101853.22;4971039;28;20050;-62
2022/05/08 02:08:20;;;;;;;24.10;16.52;;;;;;;14.40;77.86;101856.72;4989219;28;20057;-61
2022/05/08 02:10:53;;;;;;;26.88;16.67;;;;;;;14.39;78.08;101845.94;5016110;28;20060;-61
2022/05/08 02:13:21;;;;;;;25.73;16.33;;;;;;;14.48;77.72;101852.41;4973526;28;20045;-62
2022/05/08 02:15:48;;;;;;;26.27;17.45;;;;;;;14.52;77.26;101854.22;5000435;28;20050;-62
2022/05/08 02:18:16;;;;;;;24.08;16.90;;;;;;;14.31;78.16;101853.03;5003212;28;20064;-61
2022/05/08 02:20:45;;;;;;;24.48;17.73;;;;;;;14.17;78.93;101855.00;5017416;28;20049;-61
2022/05/08 02:23:13;;;;;;;24.15;16.98;;;;;;;14.39;78.28;101857.03;4971078;28;20054;-62
2022/05/08 02:25:42;;;;;;;24.52;17.27;;;;;;;14.07;79.56;101851.63;5009606;28;20053;-62
2022/05/08 02:28:09;;;;;;;28.45;18.50;;;;;;;13.88;80.80;101862.78;5015111;28;20050;-61
2022/05/08 02:30:37;;;;;;;27.77;17.95;;;;;;;13.95;80.53;101860.44;5009081;28;20058;-62
2022/05/08 02:33:05;;;;;;;26.73;19.23;;;;;;;14.04;79.88;101861.38;5017195;28;20050;-62
2022/05/08 02:35:34;;;;;;;29.45;18.30;;;;;;;14.13;80.15;101869.78;4979913;28;20050;-61
2022/05/08 02:38:01;;;;;;;28.15;17.58;;;;;;;14.32;79.02;101870.50;5000969;28;20045;-63
2022/05/08 02:40:29;;;;;;;27.63;19.70;;;;;;;13.98;80.28;101865.34;5006653;28;20398;-60
2022/05/08 02:42:56;;;;;;;28.77;19.48;;;;;;;14.02;80.72;101862.78;5003868;28;20057;-62
2022/05/08 02:45:24;;;;;;;30.75;19.90;;;;;;;13.76;81.56;101876.34;4999635;28;20058;-62
2022/05/08 02:47:52;;;;;;;26.88;19.08;;;;;;;13.84;81.67;101874.81;4992826;28;20054;-59
2022/05/08 02:50:20;;;;;;;26.50;18.98;;;;;;;13.92;81.09;101877.69;4988853;28;20501;-63
2022/05/08 02:52:47;;;;;;;30.00;20.02;;;;;;;13.58;82.72;101877.25;5016867;28;20046;-62
2022/05/08 03:00:47;;;;;;;28.77;20.60;;;;;;;13.67;82.71;101889.25;5001779;28;20553;-61
2022/05/08 03:03:15;;;;;;;34.05;21.92;;;;;;;13.82;82.44;101885.38;4999631;28;20065;-61
2022/05/08 03:05:47;;;;;;;32.28;22.33;;;;;;;13.57;83.77;101881.13;4967997;28;20391;-62
2022/05/08 03:08:17;;;;;;;33.92;22.83;;;;;;;13.96;82.06;101872.34;4979679;28;20489;-61
2022/05/08 03:13:35;;;;;;;30.20;20.98;;;;;;;13.78;82.30;101881.56;4994624;28;20654;-62
2022/05/08 03:16:04;;;;;;;31.30;22.73;;;;;;;13.47;84.29;101884.09;4989751;28;20069;-62
2022/05/08 03:18:32;;;;;;;35.13;23.38;;;;;;;13.36;84.96;101879.84;5009555;28;20065;-61
2022/05/08 03:21:01;;;;;;;37.72;25.00;;;;;;;13.28;85.96;101884.16;4985775;28;20061;-61
2022/05/08 03:23:31;;;;;;;34.95;24.48;;;;;;;13.48;84.79;101883.78;5010079;28;20058;-61
2022/05/08 03:25:59;;;;;;;36.63;25.23;;;;;;;13.24;85.51;101885.88;5010428;28;20053;-61
2022/05/08 03:28:27;;;;;;;37.78;25.48;;;;;;;13.48;84.99;101886.56;5015925;28;20050;-61
2022/05/08 03:30:54;;;;;;;40.90;26.73;;;;;;;13.13;86.52;101883.56;5004684;28;20046;-61
2022/05/08 03:33:21;;;;;;;44.85;27.52;;;;;;;13.14;87.06;101880.53;4960781;28;20065;-62
2022/05/08 03:35:49;;;;;;;44.15;28.88;;;;;;;13.22;86.69;101884.53;5008627;28;20041;-60
2022/05/08 03:38:18;;;;;;;47.08;28.88;;;;;;;13.12;86.91;101888.31;4997752;28;20065;-61
2022/05/08 03:40:46;;;;;;;44.45;30.90;;;;;;;13.19;86.63;101885.97;5002863;28;20704;-60
2022/05/08 03:43:13;;;;;;;44.53;30.92;;;;;;;13.22;86.52;101892.81;4987393;28;20056;-60
2022/05/08 03:45:41;;;;;;;48.17;31.98;;;;;;;12.96;87.76;101889.63;5002781;28;20065;-61
2022/05/08 03:48:08;;;;;;;50.22;33.20;;;;;;;12.85;89.08;101893.66;5008473;28;20114;-60
2022/05/08 03:50:36;;;;;;;51.38;33.95;;;;;;;12.64;90.58;101886.78;4991244;28;20065;-67
2022/05/08 03:53:03;;;;;;;49.55;34.25;;;;;;;12.72;90.17;101886.16;5007185;28;20061;-67
2022/05/08 03:55:31;;;;;;;50.22;35.65;;;;;;;12.69;90.24;101891.44;4996920;28;20050;-66
2022/05/08 03:57:58;;;;;;;52.13;36.60;;;;;;;12.58;91.30;101888.00;5002148;28;20572;-65
2022/05/08 04:00:26;;;;;;;52.45;35.97;;;;;;;12.86;90.29;101880.66;4986138;28;20054;-65
2022/05/08 04:02:54;;;;;;;52.25;34.95;;;;;;;12.87;89.29;101885.06;5014617;28;20057;-67
2022/05/08 04:05:22;;;;;;;51.55;35.75;;;;;;;12.84;89.76;101889.28;4981560;28;20050;-66
2022/05/08 04:07:49;;;;;;;56.72;37.55;;;;;;;12.67;90.47;101897.28;5003090;28;20452;-67
2022/05/08 04:10:17;;;;;;;53.10;36.28;;;;;;;12.72;90.84;101888.06;5014808;28;20508;-66
2022/05/08 04:12:44;;;;;;;57.40;38.88;;;;;;;12.58;91.27;101889.94;5002365;28;20061;-66
2022/05/08 04:17:59;;;;;;;59.53;40.00;;;;;;;12.48;92.88;101895.63;5012601;28;20069;-67
2022/05/08 04:20:27;;;;;;;58.40;39.63;;;;;;;12.48;93.41;101886.19;5019197;28;20045;-67
2022/05/08 04:25:40;;;;;;;61.38;40.35;;;;;;;12.63;91.75;101896.22;4977640;28;20077;-67
2022/05/08 04:28:07;;;;;;;56.88;39.03;;;;;;;12.72;91.21;101888.91;4976630;28;20058;-68
2022/05/08 04:30:36;;;;;;;59.55;39.25;;;;;;;12.62;91.40;101894.59;5016823;28;20517;-66
2022/05/08 04:33:03;;;;;;;54.40;38.15;;;;;;;12.66;92.04;101894.81;5019128;28;20042;-68
2022/05/08 04:35:31;;;;;;;58.17;40.58;;;;;;;12.80;90.95;101893.75;5021236;28;20061;-67
2022/05/08 04:37:58;;;;;;;60.67;40.60;;;;;;;13.02;90.27;101898.72;4986353;28;20512;-68
2022/05/08 04:40:25;;;;;;;57.50;40.50;;;;;;;12.83;90.73;101887.59;5010474;28;20470;-67
2022/05/08 04:42:53;;;;;;;63.92;42.50;;;;;;;12.85;91.57;101910.25;5024778;28;20053;-66
2022/05/08 04:45:20;;;;;;;63.67;41.75;;;;;;;12.84;91.49;101900.34;4997297;28;20056;-66
2022/05/08 04:47:54;;;;;;;58.85;41.22;;;;;;;12.91;90.04;101903.53;5005979;28;20054;-68
2022/05/08 04:50:21;;;;;;;63.85;42.20;;;;;;;12.59;92.32;101908.19;4997053;28;20050;-68
2022/05/08 04:52:49;;;;;;;62.67;42.15;;;;;;;12.61;92.82;101912.28;5014242;28;20049;-67
2022/05/08 04:55:16;;;;;;;64.30;44.50;;;;;;;12.68;92.42;101922.97;5018506;28;20046;-68
2022/05/08 04:57:44;;;;;;;63.67;42.83;;;;;;;12.74;92.03;101917.09;5001511;28;20057;-69
2022/05/08 05:00:12;;;;;;;63.53;42.97;;;;;;;12.67;91.30;101924.09;4977306;28;20065;-68
2022/05/08 05:02:39;;;;;;;63.35;44.55;;;;;;;12.58;92.60;101920.34;5008176;28;20054;-68
2022/05/08 05:05:07;;;;;;;61.25;42.15;;;;;;;12.59;92.82;101928.34;5005505;28;20065;-67
2022/05/08 05:07:34;;;;;;;63.97;43.55;;;;;;;12.68;92.49;101922.97;4996941;28;20050;-66
2022/05/08 05:10:02;;;;;;;64.28;42.75;;;;;;;12.79;91.63;101927.22;4996095;28;20065;-66
2022/05/08 05:12:30;;;;;;;66.47;44.45;;;;;;;12.45;92.62;101931.00;4984462;28;20057;-68
2022/05/08 05:14:59;;;;;;;67.03;44.63;;;;;;;12.55;93.23;101927.31;5014538;28;20118;-67
2022/05/08 05:17:26;;;;;;;72.53;45.75;;;;;;;12.48;94.24;101939.84;5014012;28;20057;-67
2022/05/08 05:19:54;;;;;;;73.57;45.95;;;;;;;12.30;94.59;101952.50;5009215;28;20517;-68
2022/05/08 05:22:22;;;;;;;71.57;46.42;;;;;;;12.50;93.98;101938.41;4998573;28;20057;-66
2022/05/08 05:24:50;;;;;;;67.82;45.42;;;;;;;12.63;92.73;101945.16;5014380;28;20050;-67
2022/05/08 05:27:17;;;;;;;70.25;44.97;;;;;;;12.52;92.83;101944.47;4983977;28;20046;-66
2022/05/08 05:29:45;;;;;;;66.95;45.10;;;;;;;12.54;93.17;101953.28;4997268;28;20050;-65
2022/05/08 05:32:12;;;;;;;60.70;43.55;;;;;;;12.81;91.81;101947.13;5017689;28;20516;-65
2022/05/08 05:34:39;;;;;;;63.53;44.95;;;;;;;12.86;90.46;101950.63;5020043;28;20049;-69
2022/05/08 05:37:07;;;;;;;69.53;43.55;;;;;;;13.12;89.64;101956.63;5014336;28;20034;-67
2022/05/08 05:39:35;;;;;;;69.13;45.60;;;;;;;12.89;90.35;101961.09;5013914;28;20064;-66
2022/05/08 05:42:02;;;;;;;65.03;42.58;;;;;;;13.01;90.62;101958.69;4948715;28;20054;-67
2022/05/08 05:44:30;;;;;;;60.47;42.65;;;;;;;13.19;89.75;101965.38;4997436;28;20045;-67
2022/05/08 05:49:43;;;;;;;60.97;41.45;;;;;;;13.01;88.89;101961.47;5012560;28;20058;-67
2022/05/08 05:52:11;;;;;;;58.17;41.50;;;;;;;13.14;89.14;101958.00;4972579;28;20061;-67
2022/05/08 05:54:38;;;;;;;65.57;41.40;;;;;;;13.10;89.11;101967.16;5001714;28;20046;-67
2022/05/08 05:57:07;;;;;;;59.80;40.72;;;;;;;13.27;87.70;101968.28;5015150;28;20553;-66
2022/05/08 05:59:34;;;;;;;57.65;39.60;;;;;;;13.32;87.44;101970.97;4999064;28;20065;-68
2022/05/08 06:02:07;;;;;;;60.17;41.38;;;;;;;13.02;88.04;101970.63;5018091;28;20049;-68
2022/05/08 06:04:35;;;;;;;62.42;41.85;;;;;;;12.88;89.63;101975.22;5000452;28;20058;-67
2022/05/08 06:07:03;;;;;;;58.05;39.90;;;;;;;13.10;88.75;101981.00;5022118;28;20037;-68
2022/05/08 06:09:30;;;;;;;59.80;39.50;;;;;;;13.14;87.87;101971.00;5012711;28;20056;-67
2022/05/08 06:11:57;;;;;;;58.35;39.42;;;;;;;13.22;87.74;101981.38;4983846;28;20050;-67
2022/05/08 06:14:25;;;;;;;62.38;40.92;;;;;;;13.10;87.58;101984.59;5019374;28;20049;-67
2022/05/08 06:16:54;;;;;;;68.30;42.97;;;;;;;13.02;89.03;101979.72;4992561;28;20062;-66
2022/05/08 06:19:22;;;;;;;64.13;40.03;;;;;;;13.34;88.09;101978.97;4998829;28;20057;-66
2022/05/08 06:21:52;;;;;;;;;;;;;;;13.22;87.71;101984.97;5009895;28;20053;-68
2022/05/08 06:24:20;;;;;;;67.15;42.58;;;;;;;13.00;88.58;101981.97;5010478;28;19929;-67
2022/05/08 06:26:48;;;;;;;71.60;40.95;;;;;;;12.85;89.85;101990.44;5017397;28;20049;-68
2022/05/08 06:29:15;;;;;;;66.68;42.97;;;;;;;12.75;90.42;101992.53;5017149;28;20042;-68
2022/05/08 06:31:46;;;;;;;69.20;44.05;;;;;;;12.58;91.81;101998.56;5017878;28;20401;-67
2022/05/08 06:34:20;;;;;;;72.43;43.08;;;;;;;12.66;91.98;101997.09;5000945;28;20060;-66
2022/05/08 06:36:48;;;;;;;69.43;42.78;;;;;;;12.68;91.50;102001.19;5009129;28;20449;-67
2022/05/08 06:39:15;;;;;;;68.60;42.85;;;;;;;12.70;91.24;101996.19;5012040;28;20103;-66
2022/05/08 06:41:43;;;;;;;65.15;40.53;;;;;;;12.59;91.07;101999.41;5009447;28;20046;-66
2022/05/08 06:44:13;;;;;;;63.97;40.72;;;;;;;12.78;91.01;101994.72;5024841;28;20433;-68
2022/05/08 06:46:40;;;;;;;63.90;40.78;;;;;;;12.80;90.51;101992.47;5016919;28;20072;-68
2022/05/08 06:49:09;;;;;;;61.78;38.72;;;;;;;13.06;89.40;101991.84;4992855;28;20057;-68
2022/05/08 06:51:36;;;;;;;62.75;38.50;;;;;;;13.01;88.97;101997.41;4996602;28;20054;-68
2022/05/08 06:54:04;;;;;;;60.83;37.55;;;;;;;12.97;88.63;102010.19;5004395;28;20046;-67
2022/05/08 06:56:35;;;;;;;62.20;38.97;;;;;;;12.71;90.31;102010.84;5013257;28;20050;-68
2022/05/08 07:01:49;;;;;;;56.92;37.25;;;;;;;13.10;89.29;102016.97;5016723;28;20049;-68
2022/05/08 07:04:17;;;;;;;55.33;36.38;;;;;;;12.80;90.08;102020.94;5012568;28;20054;-67
2022/05/08 07:06:44;;;;;;;58.78;37.72;;;;;;;12.62;90.83;102018.16;5003694;28;20058;-67
2022/05/08 07:09:15;;;;;;;56.55;35.95;;;;;;;12.98;90.19;102011.03;4999470;28;20038;-66
2022/05/08 07:11:47;;;;;;;58.03;36.92;;;;;;;13.00;89.19;102008.78;5016465;28;20046;-67
2022/05/08 07:14:15;;;;;;;53.58;35.55;;;;;;;13.22;88.02;102015.41;4987049;28;20061;-66
2022/05/08 07:16:43;;;;;;;62.90;37.72;;;;;;;13.48;86.87;102011.13;4999444;28;20046;-62
2022/05/08 07:19:11;;;;;;;55.25;35.17;;;;;;;13.29;87.37;102018.63;5013347;28;20057;-63
2022/05/08 07:21:39;;;;;;;60.05;38.13;;;;;;;12.85;89.49;102011.78;4985300;28;20065;-61
2022/05/08 07:24:07;;;;;;;52.28;34.75;;;;;;;13.42;88.16;102017.84;4965862;28;20060;-62
2022/05/08 07:26:36;;;;;;;63.80;40.33;;;;;;;13.40;87.25;102027.59;5014922;28;20061;-61
2022/05/08 07:29:04;;;;;;;63.80;40.25;;;;;;;13.39;87.59;102015.69;4993497;28;20081;-67
2022/05/08 07:31:32;;;;;;;63.10;40.38;;;;;;;13.08;88.77;102019.19;5011110;28;20056;-68
2022/05/08 07:36:46;;;;;;;64.07;39.50;;;;;;;13.31;88.43;102035.75;5012534;28;20050;-68
2022/05/08 07:39:14;;;;;;;61.72;40.42;;;;;;;13.15;88.31;102039.84;4998603;28;20061;-67
2022/05/08 07:41:41;;;;;;;55.15;37.38;;;;;;;13.36;88.69;102037.59;4982071;28;20049;-67
2022/05/08 07:44:10;;;;;;;60.35;36.72;;;;;;;13.26;87.62;102038.59;4998337;28;20061;-68
2022/05/08 07:46:38;;;;;;;58.08;37.72;;;;;;;13.16;88.39;102035.16;5005619;28;20053;-67
2022/05/08 07:49:05;;;;;;;61.75;38.05;;;;;;;13.44;87.69;102040.50;5009504;28;20057;-66
2022/05/08 07:51:32;;;;;;;63.25;38.83;;;;;;;13.11;88.42;102040.75;4994933;28;20056;-68
2022/05/08 07:54:00;;;;;;;58.13;36.75;;;;;;;13.42;88.32;102048.28;4995724;28;20088;-67
2022/05/08 07:56:29;;;;;;;57.92;35.72;;;;;;;13.60;87.52;102045.81;5011310;28;20473;-67
2022/05/08 07:58:56;;;;;;;59.70;37.00;;;;;;;13.73;86.74;102040.34;4997435;28;20465;-66
2022/05/08 08:01:23;;;;;;;55.92;37.08;;;;;;;13.51;87.20;102049.25;5015968;28;20050;-69
2022/05/08 08:04:11;;;;;;;56.90;36.42;;;;;;;13.71;87.26;102058.34;5014883;28;20056;-66
2022/05/08 08:06:39;;;;;;;55.38;36.08;;;;;;;13.70;87.17;102048.41;4982496;28;20428;-62
2022/05/08 08:09:06;;;;;;;61.13;36.80;;;;;;;13.47;86.99;102053.78;4978329;28;20057;-66
2022/05/08 08:11:34;;;;;;;60.95;38.60;;;;;;;13.26;88.84;102049.66;5017415;28;20048;-68
2022/05/08 08:14:02;;;;;;;59.13;37.22;;;;;;;13.49;88.55;102051.50;4997132;28;20138;-67
2022/05/08 08:16:29;;;;;;;56.22;36.60;;;;;;;13.84;86.83;102054.84;4977087;28;20046;-63
2022/05/08 08:18:58;;;;;;;58.33;36.50;;;;;;;13.85;85.59;102059.22;5005815;28;20494;-62
2022/05/08 08:21:25;;;;;;;53.08;35.78;;;;;;;13.61;86.89;102062.13;4978670;28;20046;-66
2022/05/08 08:23:53;;;;;;;52.42;34.00;;;;;;;14.10;85.17;102059.63;5013634;28;20544;-69
2022/05/08 08:26:21;;;;;;;48.78;33.60;;;;;;;13.96;83.95;102061.56;4995913;28;20061;-66
2022/05/08 08:28:49;;;;;;;54.67;36.22;;;;;;;13.52;86.49;102056.47;5013439;28;20038;-67
2022/05/08 08:31:17;;;;;;;54.95;36.13;;;;;;;13.58;86.83;102052.47;5005557;28;20046;-66
2022/05/08 08:33:45;;;;;;;55.45;35.20;;;;;;;13.74;86.29;102047.50;5012401;28;20390;-65
2022/05/08 08:36:12;;;;;;;52.83;35.10;;;;;;;13.68;85.27;102057.03;5002082;28;20058;-66
2022/05/08 08:38:40;;;;;;;55.95;35.40;;;;;;;13.88;84.75;102044.81;4993541;28;20418;-65
2022/05/08 08:41:08;;;;;;;56.75;36.03;;;;;;;14.01;83.13;102055.91;4983674;28;20050;-65
2022/05/08 08:49:23;;;;;;;57.08;35.78;;;;;;;14.04;83.29;102052.53;5000736;28;20543;-67
2022/05/08 08:51:52;;;;;;;52.90;35.55;;;;;;;14.21;82.89;102047.22;4993481;28;20428;-65
2022/05/08 08:54:20;;;;;;;59.45;35.97;;;;;;;14.44;81.66;102051.81;5012785;28;20378;-67
2022/05/08 08:56:49;;;;;;;60.47;36.85;;;;;;;14.35;81.90;102053.63;5024817;28;20528;-66
2022/05/08 08:59:23;;;;;;;62.45;37.28;;;;;;;14.32;81.58;102056.19;4985109;28;20053;-63
2022/05/08 09:01:51;;;;;;;57.92;35.67;;;;;;;14.40;81.68;102055.50;4990598;28;20053;-63
2022/05/08 09:04:19;;;;;;;62.95;37.08;;;;;;;14.48;80.20;102055.63;4996997;28;20049;-70
2022/05/08 09:06:47;;;;;;;65.82;36.03;;;;;;;14.33;81.93;102052.31;4992286;28;20501;-63
2022/05/08 09:09:24;;;;;;;64.35;36.75;;;;;;;14.61;80.54;102049.25;5003693;28;20058;-69
2022/05/08 09:11:53;;;;;;;60.75;36.67;;;;;;;14.43;80.34;102052.13;5002937;28;20047;-68
2022/05/08 09:14:31;;;;;;;60.25;36.72;;;;;;;14.62;80.42;102053.69;4980852;28;20057;-69
2022/05/08 09:17:01;;;;;;;62.35;38.20;;;;;;;14.25;80.82;102053.81;5017907;28;20053;-68
2022/05/08 09:19:47;;;;;;;66.55;37.78;;;;;;;14.53;80.54;102057.47;5016438;28;20046;-68
2022/05/08 09:22:18;;;;;;;58.28;36.45;;;;;;;14.59;79.71;102053.47;4991827;28;20050;-69
2022/05/08 09:24:53;;;;;;;60.40;35.15;;;;;;;14.49;80.63;102060.03;5012687;28;20046;-70
2022/05/08 09:27:21;;;;;;;67.35;37.47;;;;;;;14.33;80.76;102069.75;5016810;28;20046;-65
2022/05/08 09:29:48;;;;;;;61.88;38.10;;;;;;;14.41;80.98;102065.47;5009047;28;20049;-64
2022/05/08 09:32:35;;;;;;;62.33;36.97;;;;;;;14.46;80.15;102068.97;5014077;28;20061;-69
2022/05/08 09:35:03;;;;;;;62.20;37.58;;;;;;;14.54;79.82;102062.69;4980690;28;20054;-69
2022/05/08 09:37:32;;;;;;;63.35;37.42;;;;;;;14.36;81.25;102055.31;5011437;28;20061;-68
2022/05/08 09:40:16;;;;;;;63.65;38.45;;;;;;;14.26;81.80;102055.47;4985944;28;20076;-71
2022/05/08 09:42:44;;;;;;;66.25;38.42;;;;;;;14.20;82.20;102050.31;4977823;28;20541;-70
2022/05/08 09:45:12;;;;;;;63.25;38.55;;;;;;;14.12;82.39;102070.41;5012550;28;20050;-69
2022/05/08 09:47:43;;;;;;;60.40;36.90;;;;;;;14.46;81.87;102060.66;4995396;28;20053;-68
2022/05/08 09:50:12;;;;;;;65.38;37.53;;;;;;;14.46;80.77;102063.41;5011252;28;20060;-62
2022/05/08 09:52:41;;;;;;;63.38;38.28;;;;;;;14.64;80.07;102051.38;5018768;28;20056;-61
2022/05/08 09:55:10;;;;;;;63.08;36.33;;;;;;;14.99;78.40;102060.94;4984627;28;20054;-62
2022/05/08 09:57:39;;;;;;;67.85;38.33;;;;;;;14.92;77.54;102056.94;4998256;28;20061;-62
2022/05/08 10:00:12;;;;;;;66.22;39.33;;;;;;;14.79;78.31;102061.34;5019990;28;20057;-60
2022/05/08 10:02:43;;;;;;;58.35;36.92;;;;;;;14.77;79.11;102057.28;5009201;28;20038;-67
2022/05/08 10:05:11;;;;;;;61.78;37.42;;;;;;;14.83;78.35;102053.25;5011279;28;20056;-63
2022/05/08 10:07:39;;;;;;;60.88;36.60;;;;;;;14.80;78.44;102048.31;5009591;28;20053;-68
2022/05/08 10:15:48;;;;;;;59.40;36.45;;;;;;;15.32;75.96;102045.75;5011199;28;20053;-67
2022/05/08 10:18:28;;;;;;;51.70;33.35;;;;;;;15.84;74.62;102035.06;5013274;28;20049;-62
2022/05/08 10:21:07;;;;;;;57.40;34.63;;;;;;;15.67;74.56;102042.16;5013110;28;20050;-60
2022/05/08 10:23:42;;;;;;;57.35;33.85;;;;;;;15.93;73.42;102028.44;5023615;28;20122;-67
2022/05/08 10:26:21;;;;;;;58.70;34.17;;;;;;;15.91;72.73;102030.72;5012221;28;20413;-68
2022/05/08 10:29:04;;;;;;;50.65;33.35;;;;;;;16.08;72.64;102038.34;4990620;28;20045;-67
2022/05/08 10:31:46;;;;;;;53.30;33.97;;;;;;;15.96;72.12;102038.94;5009366;28;20062;-67
2022/05/08 10:34:15;;;;;;;53.40;34.28;;;;;;;15.69;72.33;102028.75;5010944;28;20057;-63
2022/05/08 10:37:14;;;;;;;57.78;34.75;;;;;;;15.84;72.27;102033.13;4992850;28;20058;-61
2022/05/08 10:39:42;;;;;;;51.63;33.70;;;;;;;16.25;71.67;102030.09;5008861;28;20050;-68
2022/05/08 10:42:39;;;;;;;52.05;34.15;;;;;;;15.85;72.32;102020.06;4970014;28;20058;-67
2022/05/08 10:45:34;;;;;;;48.90;32.22;;;;;;;16.42;70.77;102024.63;5012215;28;20053;-69
2022/05/08 10:48:04;;;;;;;52.78;34.00;;;;;;;16.47;70.32;102021.72;5009245;28;20037;-68
2022/05/08 10:50:31;;;;;;;61.40;36.40;;;;;;;16.11;71.23;102018.25;4990912;28;20053;-69
2022/05/08 10:52:59;;;;;;;51.47;33.95;;;;;;;16.50;70.78;102021.06;5017980;28;20056;-67
2022/05/08 10:55:27;;;;;;;49.22;32.05;;;;;;;16.79;69.75;102021.31;4996020;28;20053;-67
2022/05/08 10:57:55;;;;;;;52.03;34.63;;;;;;;16.63;68.48;102020.16;5004981;28;20049;-69
2022/05/08 11:00:28;;;;;;;51.28;33.05;;;;;;;16.40;69.81;102018.56;5014000;28;20076;-64
2022/05/08 11:02:58;;;;;;;53.47;34.30;;;;;;;16.51;69.69;102017.97;5000100;28;20509;-63
2022/05/08 11:05:26;;;;;;;;;;;;;;;16.57;68.95;102021.44;5009443;28;20537;-65
2022/05/08 11:07:57;;;;;;;55.53;34.60;;;;;;;16.45;69.17;102023.97;4980901;28;19925;-64
2022/05/08 11:10:30;;;;;;;55.20;32.40;;;;;;;16.66;68.44;102017.53;4997868;28;20046;-63
2022/05/08 11:13:11;;;;;;;49.83;32.30;;;;;;;16.94;68.11;102018.09;4970731;28;20042;-68
2022/05/08 11:15:45;;;;;;;51.30;34.53;;;;;;;16.59;68.48;102013.59;4988690;28;20045;-64
2022/05/08 11:18:15;;;;;;;52.17;35.22;;;;;;;16.58;68.84;102006.41;5001376;28;20052;-70
2022/05/08 11:20:53;;;;;;;47.63;32.28;;;;;;;16.96;67.99;102021.38;5005948;28;20038;-65
2022/05/08 11:23:28;;;;;;;49.35;33.05;;;;;;;16.93;67.21;102013.66;5005459;28;20056;-64
2022/05/08 11:26:00;;;;;;;48.83;31.30;;;;;;;17.11;67.19;102020.91;4969870;28;20053;-70
2022/05/08 11:28:29;;;;;;;53.38;33.55;;;;;;;17.06;67.17;102000.75;4991383;28;20485;-69
2022/05/08 11:30:57;;;;;;;52.20;33.25;;;;;;;16.95;67.93;102016.13;5007114;28;20402;-70
2022/05/08 11:36:25;;;;;;;45.45;32.40;;;;;;;17.21;66.27;102003.88;5007597;28;20053;-70
2022/05/08 11:39:00;;;;;;;82.20;38.50;;;;;;;17.70;66.23;102002.56;4986974;28;20057;-72
2022/05/08 11:41:34;;;;;;;149.30;48.72;;;;;;;17.57;65.85;101996.03;5008151;28;20057;-69
2022/05/08 11:44:15;;;;;;;48.95;32.08;;;;;;;17.32;64.62;101990.44;5005214;28;20145;-68
2022/05/08 11:46:50;;;;;;;48.80;30.38;;;;;;;17.66;64.38;101980.13;4984023;28;20509;-70
2022/05/08 11:49:21;;;;;;;43.80;30.63;;;;;;;17.93;64.00;101985.31;4969764;28;20041;-64
2022/05/08 11:51:51;;;;;;;51.90;33.75;;;;;;;17.85;64.47;101979.78;5008027;28;20062;-66
2022/05/08 11:54:24;;;;;;;48.22;33.25;;;;;;;17.75;65.11;101977.31;4990862;28;20516;-66
2022/05/08 11:57:12;;;;;;;46.97;31.42;;;;;;;17.63;65.20;101988.31;5002049;28;20050;-69